Time;durP1;ratioP1;P1;durP2;ratioP2;P2;SDS_P1;SDS_P2;PMS_P1;PMS_P2;Temp;Humidity;BMP_temperature;BMP_pressure;BME280_temperature;BME280_humidity;BME280_pressure;Samples;Min_cycle;Max_cycle;Signal;HPM_P1;HPM_P2
2023/03/05 00:00:19;;;;;;;63.77;19.97;;;;;;;-145.69;100.00;52594.91;5113071;28;20193;-81
2023/03/05 00:02:45;;;;;;;62.30;19.93;;;;;;;-145.69;100.00;52565.19;5112961;28;20212;-81
2023/03/05 00:05:12;;;;;;;59.17;18.77;;;;;;;-145.69;100.00;52632.53;5112543;28;20224;-80
2023/03/05 00:07:38;;;;;;;64.13;19.67;;;;;;;-145.69;100.00;52583.00;5112628;28;20272;-81
2023/03/05 00:10:07;;;;;;;71.60;24.52;;;;;;;-145.69;100.00;52602.81;5112147;28;20434;-81
2023/03/05 00:12:33;;;;;;;67.83;22.10;;;;;;;-145.69;100.00;52618.66;5112756;28;20255;-80
2023/03/05 00:15:01;;;;;;;63.20;20.13;;;;;;;-145.69;100.00;52579.06;5112965;28;20237;-81
2023/03/05 00:17:28;;;;;;;65.90;19.70;;;;;;;-145.69;100.00;52610.75;5112807;28;20204;-81
2023/03/05 00:19:55;;;;;;;57.33;18.40;;;;;;;-145.69;100.00;52586.97;5112824;28;20208;-80
2023/03/05 00:22:22;;;;;;;69.93;18.00;;;;;;;-145.69;100.00;52579.06;5113237;28;20693;-80
2023/03/05 00:24:50;;;;;;;67.23;18.90;;;;;;;-145.69;100.00;52606.78;5112746;28;20575;-80
2023/03/05 00:27:17;;;;;;;65.57;19.57;;;;;;;-145.69;100.00;52596.88;5113009;28;20201;-81
2023/03/05 00:29:43;;;;;;;56.03;19.07;;;;;;;-145.69;100.00;52600.84;5112816;28;20208;-80
2023/03/05 00:32:11;;;;;;;57.50;17.83;;;;;;;-145.69;100.00;52598.84;5112882;28;20292;-81
2023/03/05 00:34:38;;;;;;;62.57;20.17;;;;;;;-145.69;100.00;52586.97;5112726;28;20197;-81
2023/03/05 00:37:04;;;;;;;67.83;20.73;;;;;;;-145.69;100.00;52571.13;5111983;28;20194;-81
2023/03/05 00:39:31;;;;;;;71.80;20.67;;;;;;;-145.69;100.00;52586.97;5114454;28;20698;-80
2023/03/05 00:41:57;;;;;;;59.53;19.30;;;;;;;-145.69;100.00;52606.78;5116268;28;20225;-81
2023/03/05 00:44:24;;;;;;;64.47;19.87;;;;;;;-145.69;100.00;52608.75;5116590;28;20224;-81
2023/03/05 00:46:51;;;;;;;66.17;19.80;;;;;;;-145.69;100.00;52602.81;5116397;28;20667;-81
2023/03/05 00:49:19;;;;;;;65.53;20.07;;;;;;;-145.69;100.00;52596.88;5116393;28;20197;-81
2023/03/05 00:51:45;;;;;;;65.83;19.27;;;;;;;-145.69;100.00;52581.03;5116218;28;20555;-81
2023/03/05 00:54:12;;;;;;;69.67;19.90;;;;;;;-145.69;100.00;52606.78;5116478;28;20197;-81
2023/03/05 00:56:38;;;;;;;60.93;19.80;;;;;;;-145.69;100.00;52585.00;5116441;28;20201;-81
2023/03/05 00:59:05;;;;;;;56.97;20.00;;;;;;;-145.69;100.00;52573.13;5116150;28;20551;-81
2023/03/05 01:01:31;;;;;;;53.57;17.50;;;;;;;-145.69;100.00;52624.59;5115730;28;20228;-81
2023/03/05 01:03:59;;;;;;;56.63;19.40;;;;;;;-145.69;100.00;52600.84;5116141;28;20201;-80
2023/03/05 01:06:28;;;;;;;56.10;19.93;;;;;;;-145.69;100.00;52579.06;5115524;28;20229;-81
2023/03/05 01:08:55;;;;;;;53.53;18.33;;;;;;;-145.69;100.00;52594.91;5116167;28;20197;-81
2023/03/05 01:11:22;;;;;;;51.60;17.83;;;;;;;-145.69;100.00;52604.81;5115843;28;20209;-81
2023/03/05 01:13:49;;;;;;;53.40;19.30;;;;;;;-145.69;100.00;52590.94;5097384;28;20198;-81
2023/03/05 01:16:15;;;;;;;52.30;16.47;;;;;;;-145.69;100.00;52592.91;5115824;28;20235;-81
2023/03/05 01:18:42;;;;;;;57.60;18.07;;;;;;;-145.69;100.00;52575.09;5116014;28;20201;-81
2023/03/05 01:21:08;;;;;;;54.87;18.50;;;;;;;-145.69;100.00;52590.94;5115433;28;20286;-81
2023/03/05 01:23:37;;;;;;;56.47;17.30;;;;;;;-145.69;100.00;52610.75;5115819;28;20200;-81
2023/03/05 01:26:04;;;;;;;51.30;18.63;;;;;;;-145.69;100.00;52586.97;5115278;28;20315;-81
2023/03/05 01:28:31;;;;;;;51.80;17.13;;;;;;;-145.69;100.00;52594.91;5115593;28;20300;-81
2023/03/05 01:30:57;;;;;;;57.60;18.87;;;;;;;-145.69;100.00;52618.66;5115712;28;20284;-81
2023/03/05 01:33:24;;;;;;;57.40;18.03;;;;;;;-145.69;100.00;52604.81;5115632;28;20289;-81
2023/03/05 01:35:51;;;;;;;56.53;18.20;;;;;;;-145.69;100.00;52571.13;5114316;28;20193;-81
2023/03/05 01:38:18;;;;;;;59.30;18.47;;;;;;;-145.69;100.00;52586.97;5112685;28;20632;-81
2023/03/05 01:40:46;;;;;;;47.00;16.07;;;;;;;-145.69;100.00;52598.84;5115290;28;20222;-81
2023/03/05 01:43:27;;;;;;;56.33;18.07;;;;;;;-145.69;100.00;52581.03;5115734;28;20197;-81
2023/03/05 01:46:33;;;;;;;53.40;17.27;;;;;;;-145.69;100.00;52586.97;5115274;28;20259;-82
2023/03/05 01:49:12;;;;;;;57.10;17.00;;;;;;;-145.69;100.00;52610.75;5115112;28;20279;-82
2023/03/05 01:51:45;;;;;;;54.30;17.47;;;;;;;-145.69;100.00;52598.84;5115169;28;20293;-82
2023/03/05 01:54:14;;;;;;;60.60;18.97;;;;;;;-145.69;100.00;52602.81;5115665;28;20203;-82
2023/03/05 01:56:43;;;;;;;49.20;16.67;;;;;;;-145.69;100.00;52590.94;5115462;28;20197;-82
2023/03/05 01:59:12;;;;;;;55.73;18.47;;;;;;;-145.69;100.00;52602.81;5115676;28;20201;-81
2023/03/05 02:01:42;;;;;;;57.70;19.27;;;;;;;-145.69;100.00;52624.59;5115314;28;20225;-82
2023/03/05 02:04:09;;;;;;;63.93;19.00;;;;;;;-145.69;100.00;52581.03;5115221;28;20206;-82
2023/03/05 02:06:37;;;;;;;57.33;18.77;;;;;;;-145.69;100.00;52598.84;5114803;28;20221;-81
2023/03/05 02:09:07;;;;;;;62.23;17.53;;;;;;;-145.69;100.00;52571.13;5114957;28;20682;-81
2023/03/05 02:11:34;;;;;;;47.37;15.57;;;;;;;-145.69;100.00;52569.16;5114757;28;20193;-81
2023/03/05 02:14:02;;;;;;;57.60;17.17;;;;;;;-145.69;100.00;52596.88;5114135;28;20671;-81
2023/03/05 02:16:34;;;;;;;54.43;17.03;;;;;;;-145.69;100.00;52575.09;5094866;28;20208;-82
2023/03/05 02:19:01;;;;;;;53.37;16.70;;;;;;;-145.69;100.00;52579.06;5112605;28;20202;-82
2023/03/05 02:21:35;;;;;;;56.43;16.53;;;;;;;-145.69;100.00;52620.66;5115190;28;20280;-82
2023/03/05 02:24:02;;;;;;;50.93;15.27;;;;;;;-145.69;100.00;52577.06;5115087;28;20201;-81
2023/03/05 02:26:28;;;;;;;45.40;15.10;;;;;;;-145.69;100.00;52594.91;5095064;28;20329;-82
2023/03/05 02:28:58;;;;;;;46.17;14.37;;;;;;;-145.69;100.00;52586.97;5094739;28;20209;-82
2023/03/05 02:31:26;;;;;;;49.63;15.33;;;;;;;-145.69;100.00;52626.59;5112919;28;20190;-82
2023/03/05 02:33:54;;;;;;;47.40;14.63;;;;;;;-145.69;100.00;52585.00;5115742;28;20280;-82
2023/03/05 02:36:21;;;;;;;44.70;14.00;;;;;;;-145.69;100.00;52579.06;5114375;28;20212;-81
2023/03/05 02:38:49;;;;;;;46.93;14.53;;;;;;;-145.69;100.00;52600.84;5114129;28;20275;-82
2023/03/05 02:41:16;;;;;;;51.63;14.47;;;;;;;-145.69;100.00;52575.09;5113895;28;20607;-81
2023/03/05 02:43:43;;;;;;;51.17;15.87;;;;;;;-145.69;100.00;52579.06;5113926;28;20207;-81
2023/03/05 02:46:09;;;;;;;47.93;13.77;;;;;;;-145.69;100.00;52563.22;5114418;28;20321;-82
2023/03/05 02:48:37;;;;;;;44.13;14.53;;;;;;;-145.69;100.00;52618.66;5114716;28;20618;-82
2023/03/05 02:51:06;;;;;;;44.30;14.77;;;;;;;-145.69;100.00;52531.53;5114551;28;20559;-81
2023/03/05 02:53:32;;;;;;;39.00;13.73;;;;;;;-145.69;100.00;52596.88;5114397;28;20549;-81
2023/03/05 02:56:00;;;;;;;52.43;16.63;;;;;;;-145.69;100.00;52630.53;5114428;28;20596;-80
2023/03/05 02:58:27;;;;;;;43.40;15.00;;;;;;;-145.69;100.00;52598.84;5113977;28;20301;-82
2023/03/05 03:00:53;;;;;;;51.53;15.53;;;;;;;-145.69;100.00;52579.06;5113611;28;20193;-80
2023/03/05 03:03:20;;;;;;;50.80;15.70;;;;;;;-145.69;100.00;52606.78;5113198;28;20193;-82
2023/03/05 03:05:46;;;;;;;59.43;18.57;;;;;;;-145.69;100.00;52598.84;5113684;28;20217;-81
2023/03/05 03:08:13;;;;;;;54.30;17.17;;;;;;;-145.69;100.00;52586.97;5113192;28;20189;-82
2023/03/05 03:10:40;;;;;;;55.87;16.63;;;;;;;-145.69;100.00;52602.81;5113825;28;20194;-81
2023/03/05 03:13:08;;;;;;;53.73;17.10;;;;;;;-145.69;100.00;52586.97;5113563;28;20204;-80
2023/03/05 03:15:36;;;;;;;61.57;18.33;;;;;;;-145.69;100.00;52614.72;5113867;28;20682;-81
2023/03/05 03:18:03;;;;;;;56.43;17.73;;;;;;;-145.69;100.00;52563.22;5114344;28;20201;-82
2023/03/05 03:20:31;;;;;;;63.20;18.87;;;;;;;-145.69;100.00;52602.81;5113941;28;20236;-82
2023/03/05 03:22:58;;;;;;;61.10;17.93;;;;;;;-145.69;100.00;52563.22;5113563;28;20742;-82
2023/03/05 03:25:24;;;;;;;52.50;16.77;;;;;;;-145.69;100.00;52590.94;5113144;28;20190;-82
2023/03/05 03:27:51;;;;;;;62.30;17.87;;;;;;;-145.69;100.00;52610.75;5113940;28;20208;-82
2023/03/05 03:30:19;;;;;;;54.70;17.60;;;;;;;-145.69;100.00;52585.00;5113578;28;20197;-82
2023/03/05 03:32:48;;;;;;;46.77;16.07;;;;;;;-145.69;100.00;52602.81;5109876;28;20236;-82
2023/03/05 03:35:18;;;;;;;49.17;17.33;;;;;;;-145.69;100.00;52602.81;5113720;28;20193;-82
2023/03/05 03:37:45;;;;;;;57.23;17.80;;;;;;;-145.69;100.00;52577.06;5093570;28;20198;-81
2023/03/05 03:40:12;;;;;;;56.67;18.00;;;;;;;-145.69;100.00;52573.13;5113172;28;20207;-80
2023/03/05 03:42:39;;;;;;;59.47;18.70;;;;;;;-145.69;100.00;52577.06;5113453;28;20193;-81
2023/03/05 03:45:06;;;;;;;55.00;17.23;;;;;;;-145.69;100.00;52622.63;5113280;28;20201;-81
2023/03/05 03:47:34;;;;;;;46.60;16.03;;;;;;;-145.69;100.00;52579.06;5112322;28;20231;-81
2023/03/05 03:50:01;;;;;;;59.63;17.17;;;;;;;-145.69;100.00;52614.72;5113270;28;20223;-81
2023/03/05 03:52:27;;;;;;;52.37;16.77;;;;;;;-145.69;100.00;52559.25;5113104;28;20197;-81
2023/03/05 03:55:00;;;;;;;63.53;18.00;;;;;;;-145.69;100.00;52585.00;5113085;28;20224;-81
2023/03/05 03:57:27;;;;;;;55.67;17.83;;;;;;;-145.69;100.00;52575.09;5113351;28;20202;-81
2023/03/05 03:59:53;;;;;;;50.27;16.17;;;;;;;-145.69;100.00;52577.06;5112991;28;20198;-81
2023/03/05 04:02:22;;;;;;;54.73;16.83;;;;;;;-145.69;100.00;52590.94;5113157;28;20590;-82
2023/03/05 04:04:51;;;;;;;51.83;17.10;;;;;;;-145.69;100.00;52642.44;5112740;28;20201;-81
2023/03/05 04:07:17;;;;;;;55.87;16.97;;;;;;;-145.69;100.00;52610.75;5113027;28;20312;-80
2023/03/05 04:09:45;;;;;;;50.53;16.77;;;;;;;-145.69;100.00;52531.53;5113071;28;20276;-81
2023/03/05 04:12:16;;;;;;;44.83;14.63;;;;;;;-145.69;100.00;52608.75;5113355;28;20205;-82
2023/03/05 04:14:51;;;;;;;54.27;17.30;;;;;;;-145.69;100.00;52610.75;5115282;28;20201;-82
2023/03/05 04:17:21;;;;;;;55.70;17.53;;;;;;;-145.69;100.00;52569.16;5117056;28;20662;-81
2023/03/05 04:19:47;;;;;;;54.83;17.07;;;;;;;-145.69;100.00;52586.97;5117175;28;20189;-80
2023/03/05 04:22:19;;;;;;;53.00;16.20;;;;;;;-145.69;100.00;52579.06;5117380;28;20205;-82
2023/03/05 04:24:45;;;;;;;49.73;16.77;;;;;;;-145.69;100.00;52585.00;5117696;28;20563;-82
2023/03/05 04:27:12;;;;;;;51.70;16.53;;;;;;;-145.69;100.00;52604.81;5118024;28;20225;-82
2023/03/05 04:29:42;;;;;;;48.63;16.07;;;;;;;-145.69;100.00;52594.91;5117544;28;20197;-83
2023/03/05 04:32:08;;;;;;;49.47;16.43;;;;;;;-145.69;100.00;52630.53;5117742;28;20206;-82
2023/03/05 04:34:36;;;;;;;51.70;17.70;;;;;;;-145.69;100.00;52602.81;5117285;28;20193;-81
2023/03/05 04:37:03;;;;;;;48.90;15.93;;;;;;;-145.69;100.00;52586.97;5117194;28;20201;-82
2023/03/05 04:39:31;;;;;;;47.60;15.77;;;;;;;-145.69;100.00;52594.91;5117211;28;20190;-82
2023/03/05 04:41:57;;;;;;;51.53;15.60;;;;;;;-145.69;100.00;52630.53;5116792;28;20237;-81
2023/03/05 04:44:29;;;;;;;42.67;15.37;;;;;;;-145.69;100.00;52585.00;5116575;28;20200;-82
2023/03/05 04:47:06;;;;;;;47.80;16.27;;;;;;;-145.69;100.00;52594.91;5117126;28;20311;-81
2023/03/05 04:49:33;;;;;;;49.17;15.97;;;;;;;-145.69;100.00;52624.59;5116925;28;20736;-82
2023/03/05 04:52:02;;;;;;;48.27;16.10;;;;;;;-145.69;100.00;52598.84;5117049;28;20237;-82
2023/03/05 04:54:29;;;;;;;42.63;15.30;;;;;;;-145.69;100.00;52590.94;5117257;28;20707;-82
2023/03/05 04:56:56;;;;;;;43.37;15.17;;;;;;;-145.69;100.00;52585.00;5117472;28;20581;-82
2023/03/05 04:59:23;;;;;;;36.80;13.63;;;;;;;-145.69;100.00;52585.00;5117342;28;20616;-81
2023/03/05 05:01:50;;;;;;;48.43;15.50;;;;;;;-145.69;100.00;52606.78;5116831;28;20536;-82
2023/03/05 05:04:16;;;;;;;46.40;14.60;;;;;;;-145.69;100.00;52632.53;5116477;28;20193;-82
2023/03/05 05:06:43;;;;;;;48.53;16.63;;;;;;;-145.69;100.00;52606.78;5116173;28;20221;-82
2023/03/05 05:09:09;;;;;;;41.37;15.20;;;;;;;-145.69;100.00;52590.94;5116247;28;20240;-82
2023/03/05 05:11:36;;;;;;;38.77;13.47;;;;;;;-145.69;100.00;52602.81;5116014;28;20197;-82
2023/03/05 05:14:06;;;;;;;45.63;15.00;;;;;;;-145.69;100.00;52579.06;5116555;28;20194;-81
2023/03/05 05:16:33;;;;;;;36.33;13.17;;;;;;;-145.69;100.00;52583.00;5116515;28;20216;-82
2023/03/05 05:19:00;;;;;;;37.77;12.03;;;;;;;-145.69;100.00;52577.06;5116383;28;20205;-82
2023/03/05 05:21:26;;;;;;;50.77;14.47;;;;;;;-145.69;100.00;52614.72;5116265;28;20202;-82
2023/03/05 05:23:55;;;;;;;42.20;13.53;;;;;;;-145.69;100.00;52586.97;5115922;28;20579;-81
2023/03/05 05:26:22;;;;;;;47.70;14.17;;;;;;;-145.69;100.00;52594.91;5113743;28;20236;-82
2023/03/05 05:28:48;;;;;;;37.53;12.30;;;;;;;-145.69;100.00;52620.66;5107294;28;20201;-81
2023/03/05 05:31:17;;;;;;;37.30;12.33;;;;;;;-145.69;100.00;52575.09;5115370;28;20216;-81
2023/03/05 05:33:44;;;;;;;31.60;11.93;;;;;;;-145.69;100.00;52610.75;5115579;28;20203;-81
2023/03/05 05:36:14;;;;;;;36.90;12.85;;;;;;;-145.69;100.00;52569.16;5115054;28;20473;-81
2023/03/05 05:38:41;;;;;;;32.37;10.57;;;;;;;-145.69;100.00;52579.06;5115287;28;20201;-82
2023/03/05 05:41:10;;;;;;;31.23;10.70;;;;;;;-145.69;100.00;52596.88;5115784;28;20252;-81
2023/03/05 05:43:37;;;;;;;35.13;11.47;;;;;;;-145.69;100.00;52586.97;5115410;28;20273;-82
2023/03/05 05:46:05;;;;;;;29.87;10.73;;;;;;;-145.69;100.00;52604.81;5115186;28;20666;-82
2023/03/05 05:48:35;;;;;;;37.37;11.67;;;;;;;-145.69;100.00;52598.84;5115655;28;20208;-82
2023/03/05 05:51:05;;;;;;;35.70;11.23;;;;;;;-145.69;100.00;52606.78;5114840;28;20652;-81
2023/03/05 05:53:34;;;;;;;45.80;14.73;;;;;;;-145.69;100.00;52586.97;5115715;28;20208;-79
2023/03/05 05:56:00;;;;;;;39.37;13.37;;;;;;;-145.69;100.00;52598.84;5115281;28;20659;-82
2023/03/05 05:58:27;;;;;;;34.67;12.23;;;;;;;-145.69;100.00;52586.97;5115772;28;20644;-82
2023/03/05 06:00:53;;;;;;;34.03;11.73;;;;;;;-145.69;100.00;52618.66;5117207;28;20194;-81
2023/03/05 06:03:20;;;;;;;35.20;11.60;;;;;;;-145.69;100.00;52579.06;5116619;28;20219;-81
2023/03/05 06:05:48;;;;;;;35.20;11.10;;;;;;;-145.69;100.00;52598.84;5115572;28;20204;-81
2023/03/05 06:08:14;;;;;;;28.07;10.13;;;;;;;-145.69;100.00;52606.78;5116196;28;20225;-81
2023/03/05 06:10:43;;;;;;;31.50;9.10;;;;;;;-145.69;100.00;52586.97;5115989;28;20224;-81
2023/03/05 06:13:10;;;;;;;25.40;9.47;;;;;;;-145.69;100.00;52588.97;5114973;28;20220;-81
2023/03/05 06:15:37;;;;;;;30.63;10.00;;;;;;;-145.69;100.00;52579.06;5094684;28;20289;-81
2023/03/05 06:18:03;;;;;;;24.03;8.57;;;;;;;-145.69;100.00;52592.91;5095056;28;20207;-81
2023/03/05 06:20:32;;;;;;;24.17;9.53;;;;;;;-145.69;100.00;52594.91;5094693;28;20194;-81
2023/03/05 06:23:00;;;;;;;29.50;11.82;;;;;;;-145.69;100.00;52583.00;5106174;28;20797;-81
2023/03/05 06:25:26;;;;;;;25.30;9.50;;;;;;;-145.69;100.00;52612.72;5115003;28;20559;-81
2023/03/05 06:27:56;;;;;;;23.83;8.80;;;;;;;-145.69;100.00;52590.94;5114752;28;20263;-82
2023/03/05 06:30:22;;;;;;;23.40;8.97;;;;;;;-145.69;100.00;52634.50;5118091;28;20670;-82
2023/03/05 06:32:49;;;;;;;21.33;8.37;;;;;;;-145.69;100.00;52616.69;5118817;28;20204;-82
2023/03/05 06:35:18;;;;;;;21.57;8.40;;;;;;;-145.69;100.00;52606.78;5116835;28;20196;-81
2023/03/05 06:37:45;;;;;;;23.63;8.10;;;;;;;-145.69;100.00;52608.75;5116044;28;20667;-82
2023/03/05 06:40:14;;;;;;;21.90;8.70;;;;;;;-145.69;100.00;52608.75;5117220;28;20205;-80
2023/03/05 06:42:43;;;;;;;20.00;7.63;;;;;;;-145.69;100.00;52583.00;5115593;28;20205;-81
2023/03/05 06:45:10;;;;;;;23.73;8.57;;;;;;;-145.69;100.00;52608.75;5115426;28;20206;-81
2023/03/05 06:47:40;;;;;;;21.10;7.70;;;;;;;-145.69;100.00;52590.94;5116035;28;20703;-81
2023/03/05 06:50:07;;;;;;;22.57;8.40;;;;;;;-145.69;100.00;52581.03;5118101;28;20201;-82
2023/03/05 06:52:33;;;;;;;17.63;7.60;;;;;;;-145.69;100.00;52600.84;5117019;28;20194;-82
2023/03/05 06:55:07;;;;;;;24.87;8.33;;;;;;;-145.69;100.00;52602.81;5116535;28;20197;-81
2023/03/05 06:57:35;;;;;;;21.40;8.20;;;;;;;-145.69;100.00;52573.13;5115778;28;20201;-82
2023/03/05 07:00:09;;;;;;;26.70;8.80;;;;;;;-145.69;100.00;52579.06;5116387;28;20536;-82
2023/03/05 07:02:37;;;;;;;29.97;10.00;;;;;;;-145.69;100.00;52638.47;5095750;28;20637;-81
2023/03/05 07:05:03;;;;;;;26.57;9.63;;;;;;;-145.69;100.00;52594.91;5093867;28;20569;-81
2023/03/05 07:07:33;;;;;;;25.07;8.50;;;;;;;-145.69;100.00;52586.97;5093741;28;20222;-81
2023/03/05 07:09:59;;;;;;;24.30;9.03;;;;;;;-145.69;100.00;52575.09;5094280;28;20198;-81
2023/03/05 07:12:26;;;;;;;20.50;8.23;;;;;;;-145.69;100.00;52579.06;5107065;28;20193;-80
2023/03/05 07:14:58;;;;;;;21.33;8.83;;;;;;;-145.69;100.00;52590.94;5113761;28;20193;-80
2023/03/05 07:17:24;;;;;;;19.57;8.33;;;;;;;-145.69;100.00;52598.84;5113747;28;20197;-81
2023/03/05 07:19:51;;;;;;;23.23;9.10;;;;;;;-145.69;100.00;52585.00;5113501;28;20292;-80
2023/03/05 07:22:18;;;;;;;20.57;8.20;;;;;;;-145.69;100.00;52579.06;5111577;28;20190;-81
2023/03/05 07:24:47;;;;;;;23.67;9.03;;;;;;;-145.69;100.00;52557.28;5108824;28;20287;-80
2023/03/05 07:27:13;;;;;;;24.77;8.17;;;;;;;-145.69;100.00;52586.97;5113185;28;20225;-81
2023/03/05 07:29:40;;;;;;;20.53;8.23;;;;;;;-145.69;100.00;52596.88;5113998;28;20212;-81
2023/03/05 07:32:08;;;;;;;23.23;9.23;;;;;;;-145.69;100.00;52612.72;5113539;28;20202;-80
2023/03/05 07:34:37;;;;;;;26.10;8.23;;;;;;;-145.69;100.00;52602.81;5113601;28;20655;-81
2023/03/05 07:37:04;;;;;;;19.37;7.70;;;;;;;-145.69;100.00;52590.94;5113400;28;20197;-81
2023/03/05 07:39:30;;;;;;;23.13;8.57;;;;;;;-145.69;100.00;52577.06;5114549;28;20292;-81
2023/03/05 07:41:59;;;;;;;50.53;15.90;;;;;;;-145.69;100.00;52583.00;5113799;28;20714;-80
2023/03/05 07:44:29;;;;;;;38.87;14.70;;;;;;;-145.69;100.00;52618.66;5113150;28;20226;-81
2023/03/05 07:47:01;;;;;;;36.07;11.07;;;;;;;-145.69;100.00;52600.84;5113280;28;20225;-81
2023/03/05 07:49:29;;;;;;;27.93;10.77;;;;;;;-145.69;100.00;52618.66;5119127;28;20243;-81
2023/03/05 07:51:55;;;;;;;24.63;9.70;;;;;;;-145.69;100.00;52588.97;5109934;28;20192;-81
2023/03/05 07:54:22;;;;;;;24.50;8.93;;;;;;;-145.69;100.00;52561.22;5119943;28;20232;-79
2023/03/05 07:56:54;;;;;;;23.33;9.53;;;;;;;-145.69;100.00;52608.75;5120243;28;20314;-80
2023/03/05 07:59:20;;;;;;;24.97;9.30;;;;;;;-145.69;100.00;52598.84;5120476;28;20265;-81
2023/03/05 08:01:47;;;;;;;22.77;8.90;;;;;;;-145.69;100.00;52618.66;5119760;28;20197;-81
2023/03/05 08:04:13;;;;;;;21.33;8.60;;;;;;;-145.69;100.00;52624.59;5119980;28;20224;-81
2023/03/05 08:06:42;;;;;;;18.50;8.17;;;;;;;-145.69;100.00;52586.97;5119740;28;20193;-81
2023/03/05 08:09:08;;;;;;;24.27;9.10;;;;;;;-145.69;100.00;52594.91;5120068;27;20622;-81
2023/03/05 08:11:35;;;;;;;27.53;8.90;;;;;;;-145.69;100.00;52575.09;5120120;28;20663;-81
2023/03/05 08:14:03;;;;;;;25.53;8.87;;;;;;;-145.69;100.00;52565.19;5120004;27;20190;-81
2023/03/05 08:16:29;;;;;;;21.50;8.77;;;;;;;-145.69;100.00;52579.06;5120200;28;20201;-81
2023/03/05 08:18:57;;;;;;;22.63;9.10;;;;;;;-145.69;100.00;52596.88;5120036;28;20651;-81
2023/03/05 08:21:28;;;;;;;26.53;8.73;;;;;;;-145.69;100.00;52581.03;5120380;28;20659;-82
2023/03/05 08:23:56;;;;;;;28.17;9.40;;;;;;;-145.69;100.00;52594.91;5120693;28;20198;-81
2023/03/05 08:26:28;;;;;;;28.50;9.73;;;;;;;-145.69;100.00;52565.19;5121971;28;20652;-81
2023/03/05 08:28:55;;;;;;;26.43;9.33;;;;;;;-145.69;100.00;52573.13;5120051;27;20316;-81
2023/03/05 08:31:24;;;;;;;28.60;10.00;;;;;;;-145.69;100.00;52583.00;5119812;28;20197;-80
2023/03/05 08:33:57;;;;;;;29.10;9.40;;;;;;;-145.69;100.00;52585.00;5120090;28;20204;-82
2023/03/05 08:36:25;;;;;;;24.03;9.20;;;;;;;-145.69;100.00;52565.19;5121328;28;20224;-81
2023/03/05 08:38:52;;;;;;;31.87;9.67;;;;;;;-145.69;100.00;52571.13;5120533;28;20643;-84
2023/03/05 08:41:20;;;;;;;26.93;9.80;;;;;;;-145.69;100.00;52598.84;5124301;28;20273;-83
2023/03/05 08:43:47;;;;;;;25.90;9.63;;;;;;;-145.69;100.00;52571.13;5126338;28;20197;-82
2023/03/05 08:46:16;;;;;;;31.27;9.30;;;;;;;-145.69;100.00;52586.97;5124766;28;20193;-81
2023/03/05 08:48:45;;;;;;;26.17;10.30;;;;;;;-145.69;100.00;52622.63;5109134;28;20221;-81
2023/03/05 08:51:15;;;;;;;28.33;10.13;;;;;;;-145.69;100.00;52594.91;5120735;28;20233;-82
2023/03/05 08:53:44;;;;;;;28.30;10.67;;;;;;;-145.69;100.00;52588.97;5120475;27;20204;-81
2023/03/05 08:56:15;;;;;;;27.77;11.30;;;;;;;-145.69;100.00;52594.91;5119766;27;20200;-81
2023/03/05 08:58:46;;;;;;;35.37;12.67;;;;;;;-145.69;100.00;52594.91;5119660;28;20296;-81
2023/03/05 09:01:13;;;;;;;38.47;12.70;;;;;;;-145.69;100.00;52602.81;5115608;27;20586;-81
2023/03/05 09:03:42;;;;;;;33.10;12.37;;;;;;;-145.69;100.00;52610.75;5116574;28;20194;-81
2023/03/05 09:06:11;;;;;;;31.93;11.50;;;;;;;-145.69;100.00;52585.00;5116632;28;20651;-81
2023/03/05 09:08:38;;;;;;;31.33;11.87;;;;;;;-145.69;100.00;52547.38;5116681;28;20224;-81
2023/03/05 09:11:09;;;;;;;40.50;19.93;;;;;;;-145.69;100.00;52590.94;5116424;28;20186;-81
2023/03/05 09:13:36;;;;;;;37.90;16.50;;;;;;;-145.69;100.00;52594.91;5116982;28;20229;-81
2023/03/05 09:16:08;;;;;;;31.77;13.03;;;;;;;-145.69;100.00;52575.09;5115989;28;20659;-81
2023/03/05 09:18:39;;;;;;;34.57;12.43;;;;;;;-145.69;100.00;52606.78;5116426;28;20194;-81
2023/03/05 09:21:07;;;;;;;29.83;10.10;;;;;;;-145.69;100.00;52537.47;5115965;28;20204;-81
2023/03/05 09:23:33;;;;;;;36.03;12.13;;;;;;;-145.69;100.00;52583.00;5115777;28;20202;-80
2023/03/05 09:26:00;;;;;;;25.90;10.60;;;;;;;-145.69;100.00;52559.25;5116021;28;20205;-81
2023/03/05 09:28:28;;;;;;;25.13;10.50;;;;;;;-145.69;100.00;52614.72;5098133;28;20257;-81
2023/03/05 09:30:54;;;;;;;30.53;11.53;;;;;;;-145.69;100.00;52575.09;5095508;28;20556;-81
2023/03/05 09:33:26;;;;;;;32.60;11.40;;;;;;;-145.69;100.00;52606.78;5096020;28;20209;-81
2023/03/05 09:35:52;;;;;;;29.37;10.80;;;;;;;-145.69;100.00;52559.25;5110580;28;20536;-81
2023/03/05 09:38:21;;;;;;;29.20;11.03;;;;;;;-145.69;100.00;52553.31;5115782;28;20551;-81
2023/03/05 09:41:01;;;;;;;34.07;12.07;;;;;;;-145.69;100.00;52573.13;5115806;28;20374;-81
2023/03/05 09:43:40;;;;;;;32.40;11.37;;;;;;;-145.69;100.00;52571.13;5116416;28;20524;-81
2023/03/05 09:46:17;;;;;;;31.17;11.20;;;;;;;-145.69;100.00;52606.78;5116350;28;20198;-82
2023/03/05 09:48:52;;;;;;;30.37;10.70;;;;;;;-145.69;100.00;52590.94;5116470;28;20702;-81
2023/03/05 09:51:24;;;;;;;33.37;11.07;;;;;;;-145.69;100.00;52565.19;5116689;28;20288;-81
2023/03/05 09:53:59;;;;;;;33.17;11.80;;;;;;;-145.69;100.00;52579.06;5116250;28;20201;-81
2023/03/05 09:56:29;;;;;;;35.87;11.97;;;;;;;-145.69;100.00;52563.22;5116607;28;20197;-82
2023/03/05 09:59:02;;;;;;;25.70;10.80;;;;;;;-145.69;100.00;52577.06;5115711;28;20197;-81
2023/03/05 10:01:37;;;;;;;32.60;11.10;;;;;;;-145.69;100.00;52573.13;5115850;28;20228;-81
2023/03/05 10:04:11;;;;;;;29.60;10.40;;;;;;;-145.69;100.00;52555.28;5116152;28;20265;-82
2023/03/05 10:06:46;;;;;;;27.90;10.20;;;;;;;-145.69;100.00;52577.06;5116157;28;20232;-82
2023/03/05 10:09:23;;;;;;;32.53;11.00;;;;;;;-145.69;100.00;52579.06;5115338;28;20235;-81
2023/03/05 10:11:55;;;;;;;32.83;11.17;;;;;;;-145.69;100.00;52559.25;5114405;28;20662;-81
2023/03/05 10:14:29;;;;;;;27.67;10.13;;;;;;;-145.69;100.00;52594.91;5115432;28;20421;-81
2023/03/05 10:17:46;;;;;;;32.27;11.53;;;;;;;-145.69;100.00;52569.16;5115430;28;20223;-82
2023/03/05 10:20:34;;;;;;;55.90;24.23;;;;;;;-145.69;100.00;52575.09;5032312;28;20200;-80
2023/03/05 10:23:34;;;;;;;32.40;10.87;;;;;;;-145.69;100.00;52545.38;5114983;28;20185;-81
2023/03/05 10:26:23;;;;;;;23.70;10.50;;;;;;;-145.69;100.00;52545.38;5100055;28;20636;-81
2023/03/05 10:29:02;;;;;;;25.43;10.57;;;;;;;-145.69;100.00;52551.31;5115352;28;20224;-81
2023/03/05 10:31:48;;;;;;;28.27;10.60;;;;;;;-145.69;100.00;52547.38;5115369;28;20197;-82
2023/03/05 10:34:34;;;;;;;29.60;10.97;;;;;;;-145.69;100.00;52583.00;5115506;28;20509;-81
2023/03/05 10:37:26;;;;;;;25.10;10.50;;;;;;;-145.69;100.00;52571.13;5115154;28;20200;-81
2023/03/05 10:40:08;;;;;;;29.27;10.93;;;;;;;-145.69;100.00;52583.00;5073537;28;20202;-81
2023/03/05 10:42:42;;;;;;;24.37;9.77;;;;;;;-145.69;100.00;52535.47;5114951;28;20295;-82
2023/03/05 10:45:17;;;;;;;25.33;10.63;;;;;;;-145.69;100.00;52563.22;5116201;28;20580;-82
2023/03/05 10:47:51;;;;;;;24.13;9.87;;;;;;;-145.69;100.00;52551.31;5114835;28;20229;-81
2023/03/05 10:50:20;;;;;;;19.47;8.93;;;;;;;-145.69;100.00;52517.66;5117716;28;20659;-82
2023/03/05 10:53:05;;;;;;;23.60;9.37;;;;;;;-145.69;100.00;52583.00;5118008;28;20238;-81
2023/03/05 10:55:32;;;;;;;24.70;9.87;;;;;;;-145.69;100.00;52555.28;5114986;28;20197;-80
2023/03/05 10:57:59;;;;;;;25.23;9.27;;;;;;;-145.69;100.00;52559.25;5113851;28;20205;-79
2023/03/05 11:00:33;;;;;;;19.53;9.07;;;;;;;-145.69;100.00;52553.31;5114170;28;20549;-82
2023/03/05 11:03:02;;;;;;;21.07;9.10;;;;;;;-145.69;100.00;52537.47;5114286;28;20288;-81
2023/03/05 11:05:39;;;;;;;20.50;8.83;;;;;;;-145.69;100.00;52577.06;5114181;28;20209;-82